Time;durP1;ratioP1;P1;durP2;ratioP2;P2;SDS_P1;SDS_P2;PMS_P1;PMS_P2;Temp;Humidity;BMP_temperature;BMP_pressure;BME280_temperature;BME280_humidity;BME280_pressure;Samples;Min_cycle;Max_cycle;Signal;HPM_P1;HPM_P2
2022/01/30 00:01:55;;;;;;;1.43;1.43;;;8.30;99.90;;;8.45;100.00;101581.16;5049091;28;20670;-71
2022/01/30 00:04:23;;;;;;;2.13;1.87;;;8.20;99.90;;;8.47;100.00;101597.56;5057265;28;21083;-71
2022/01/30 00:06:50;;;;;;;2.63;2.50;;;8.30;99.90;;;8.40;100.00;101597.91;5062649;28;20642;-72
2022/01/30 00:09:20;;;;;;;2.47;2.30;;;8.20;99.90;;;8.40;100.00;101592.72;5068836;28;20978;-71
2022/01/30 00:11:56;;;;;;;1.80;1.70;;;8.20;99.90;;;8.42;100.00;101585.69;5071930;28;20619;-71
2022/01/30 00:14:25;;;;;;;1.60;1.50;;;8.20;99.90;;;8.46;100.00;101592.41;5055610;28;21248;-72
2022/01/30 00:17:06;;;;;;;1.20;1.20;;;8.30;99.90;;;8.48;100.00;101590.59;5048398;28;21037;-71
2022/01/30 00:19:42;;;;;;;1.30;1.30;;;8.30;99.90;;;8.47;100.00;101586.31;5050793;28;20615;-72
2022/01/30 00:24:55;;;;;;;1.90;1.50;;;8.20;99.90;;;8.40;100.00;101585.75;5051307;28;20616;-70
2022/01/30 00:27:47;;;;;;;1.30;1.30;;;8.20;99.90;;;8.33;100.00;101584.34;5050510;28;20663;-72
2022/01/30 00:30:16;;;;;;;1.70;1.23;;;8.20;99.90;;;8.35;100.00;101586.88;5063575;28;20634;-71
2022/01/30 00:32:44;;;;;;;1.00;1.00;;;8.20;99.90;;;8.27;100.00;101602.84;5049552;28;20636;-71
2022/01/30 00:35:38;;;;;;;1.10;1.00;;;8.00;99.90;;;8.25;100.00;101586.50;5049477;28;20627;-70
2022/01/30 00:38:16;;;;;;;1.50;1.40;;;8.00;99.90;;;8.26;100.00;101600.34;5049206;28;20667;-72
2022/01/30 00:40:44;;;;;;;1.50;1.50;;;8.00;99.90;;;8.29;100.00;101605.38;5039661;28;21163;-71
2022/01/30 00:43:12;;;;;;;1.37;1.37;;;8.00;99.90;;;8.32;100.00;101605.25;5041062;28;20723;-71
2022/01/30 00:45:39;;;;;;;0.90;0.90;;;8.10;99.90;;;8.31;100.00;101596.59;5057186;28;20632;-71
2022/01/30 00:48:06;;;;;;;1.20;1.20;;;8.10;99.90;;;8.29;100.00;101592.38;5049313;28;20750;-71
2022/01/30 00:50:35;;;;;;;1.10;1.10;;;8.10;99.90;;;8.34;100.00;101585.22;5049135;28;20990;-71
2022/01/30 00:53:02;;;;;;;1.33;1.30;;;8.10;99.90;;;8.37;100.00;101582.44;5048692;28;20625;-72
2022/01/30 00:55:30;;;;;;;0.77;0.77;;;8.10;99.90;;;8.40;100.00;101579.72;5050257;28;20985;-71
2022/01/30 00:57:59;;;;;;;2.73;0.90;;;8.20;99.90;;;8.42;100.00;101580.47;5061574;28;20779;-71
2022/01/30 01:00:27;;;;;;;1.37;0.80;;;8.20;99.90;;;8.39;100.00;101575.44;5039115;28;20639;-70
2022/01/30 01:02:54;;;;;;;1.03;1.03;;;8.10;99.90;;;8.40;100.00;101572.75;5054367;28;20635;-71
2022/01/30 01:05:21;;;;;;;1.00;1.00;;;8.20;99.90;;;8.41;100.00;101568.41;5045001;28;20715;-71
2022/01/30 01:07:50;;;;;;;1.13;1.13;;;8.20;99.90;;;8.38;100.00;101563.34;5028359;28;20632;-71
2022/01/30 01:10:33;;;;;;;0.90;0.90;;;8.10;99.90;;;8.32;100.00;101576.66;5054924;28;21210;-71
2022/01/30 01:23:29;;;;;;;0.80;0.80;;;8.00;99.90;;;8.25;100.00;101609.00;5061507;28;21208;-71
2022/01/30 01:25:59;;;;;;;0.83;0.83;;;8.00;99.90;;;8.27;100.00;101607.22;5059561;28;21178;-71
2022/01/30 01:28:27;;;;;;;1.80;1.70;;;8.00;99.90;;;8.24;100.00;101607.34;5051502;28;24446;-70
2022/01/30 01:30:55;;;;;;;1.00;1.00;;;8.00;99.90;;;8.23;100.00;101611.69;5059134;28;20193;-71
2022/01/30 01:33:26;;;;;;;1.23;1.23;;;8.00;99.90;;;8.26;100.00;101611.56;5053556;28;20619;-71
2022/01/30 01:35:53;;;;;;;1.07;1.07;;;8.00;99.90;;;8.28;100.00;101614.09;5052929;28;20615;-71
2022/01/30 01:38:21;;;;;;;0.90;0.90;;;8.10;99.90;;;8.29;100.00;101610.56;5054508;28;20662;-71
2022/01/30 01:40:52;;;;;;;1.00;1.00;;;8.10;99.90;;;8.34;100.00;101616.41;5053565;28;20631;-71
2022/01/30 01:43:22;;;;;;;0.90;0.83;;;8.10;99.90;;;8.37;100.00;101621.44;5054260;28;20984;-71
2022/01/30 01:45:52;;;;;;;0.70;0.70;;;8.10;99.90;;;8.38;100.00;101613.59;5051914;28;21208;-71
2022/01/30 01:48:19;;;;;;;0.73;0.73;;;8.20;99.90;;;8.43;100.00;101613.38;5053120;28;20635;-70
2022/01/30 01:51:04;;;;;;;1.03;1.03;;;8.20;99.90;;;8.48;100.00;101609.63;5052780;28;20697;-71
2022/01/30 01:53:33;;;;;;;0.67;0.67;;;8.30;99.90;;;8.53;99.73;101614.63;5052863;28;20630;-71
2022/01/30 01:56:00;;;;;;;1.00;1.00;;;8.30;99.90;;;8.55;99.47;101612.78;5043510;28;20638;-70
2022/01/30 01:58:28;;;;;;;0.87;0.87;;;8.40;99.90;;;8.57;99.50;101601.41;5051327;28;20651;-71
2022/01/30 02:00:55;;;;;;;0.90;0.90;;;8.40;99.90;;;8.55;99.09;101602.38;5052544;28;20641;-72
2022/01/30 02:03:22;;;;;;;0.77;0.77;;;8.40;99.90;;;8.53;99.77;101594.66;5052605;28;20631;-71
2022/01/30 02:05:55;;;;;;;1.50;1.40;;;8.40;99.90;;;8.57;99.55;101600.56;5049725;28;20634;-71
2022/01/30 02:11:08;;;;;;;2.30;1.00;;;8.40;99.90;;;8.69;98.39;101596.53;5052919;28;20976;-71
2022/01/30 02:27:58;;;;;;;3.90;1.40;;;8.30;99.90;;;8.63;96.53;101595.03;5027136;28;20660;-71
2022/01/30 02:30:31;;;;;;;1.47;1.13;;;8.30;99.90;;;8.51;96.71;101606.06;5042781;28;20742;-71
2022/01/30 02:32:58;;;;;;;1.10;1.10;;;8.30;99.90;;;8.58;97.03;101591.84;5051211;28;20626;-71
2022/01/30 02:35:25;;;;;;;1.53;1.30;;;8.30;99.90;;;8.54;97.88;101596.34;5050115;28;20628;-71
2022/01/30 02:37:54;;;;;;;1.40;1.40;;;8.20;99.90;;;8.40;97.65;101603.13;5043519;28;20664;-70
2022/01/30 02:40:21;;;;;;;1.50;1.40;;;8.10;99.90;;;8.26;98.16;101597.75;5031538;28;20625;-71
2022/01/30 02:42:51;;;;;;;1.20;1.20;;;8.00;99.90;;;8.22;96.88;101603.97;5037821;28;20632;-71
2022/01/30 02:45:19;;;;;;;0.50;0.50;;;8.00;99.90;;;8.38;93.72;101600.59;5052083;28;20599;-71
2022/01/30 02:48:00;;;;;;;0.90;0.50;;;8.10;99.90;;;8.48;89.00;101595.78;5051118;28;20665;-71
2022/01/30 02:50:36;;;;;;;0.80;0.80;;;8.20;99.90;;;8.54;82.04;101591.13;5048361;28;20746;-69
2022/01/30 02:53:08;;;;;;;1.53;1.10;;;8.30;99.90;;;8.65;78.14;101593.22;5057825;28;20619;-71
2022/01/30 02:55:36;;;;;;;0.40;0.40;;;8.30;99.90;;;8.76;76.11;101605.69;5050131;28;20642;-70
2022/01/30 02:58:03;;;;;;;5.13;2.03;;;8.50;99.90;;;8.76;75.11;101608.28;5058760;28;20702;-72
2022/01/30 03:00:31;;;;;;;2.30;1.73;;;8.50;99.90;;;8.70;74.38;101614.66;5068417;28;20611;-71
2022/01/30 03:02:58;;;;;;;2.20;1.13;;;8.50;99.90;;;8.73;73.75;101621.47;5059860;28;20634;-71
2022/01/30 03:05:25;;;;;;;1.43;1.20;;;8.50;99.90;;;8.81;72.80;101614.97;5052510;28;20662;-71
2022/01/30 03:07:52;;;;;;;1.27;1.17;;;8.50;99.90;;;8.89;72.88;101630.22;5050515;28;21034;-70
2022/01/30 03:10:20;;;;;;;0.33;0.33;;;8.60;99.90;;;8.83;72.93;101626.16;5052157;28;20620;-71
2022/01/30 03:12:47;;;;;;;3.53;1.30;;;8.60;99.90;;;8.76;72.45;101627.38;5050019;28;21186;-71
2022/01/30 03:15:14;;;;;;;0.70;0.70;;;8.50;99.90;;;8.69;72.87;101631.16;5052118;28;20623;-71
2022/01/30 03:17:41;;;;;;;1.03;0.67;;;8.40;99.90;;;8.79;72.60;101627.22;5051795;28;20737;-71
2022/01/30 03:20:09;;;;;;;3.03;0.97;;;8.50;99.90;;;8.69;73.17;101631.16;5051699;28;20643;-70
2022/01/30 03:22:37;;;;;;;0.80;0.80;;;8.50;99.90;;;8.76;73.15;101637.78;5053799;28;20635;-71
2022/01/30 03:25:05;;;;;;;1.13;0.90;;;8.50;99.90;;;8.71;73.24;101639.75;5065077;28;20714;-71
2022/01/30 03:27:32;;;;;;;2.93;1.37;;;8.40;99.90;;;8.63;73.41;101641.88;5050734;28;20656;-71
2022/01/30 03:30:06;;;;;;;0.30;0.30;;;8.40;99.90;;;8.60;73.86;101652.44;5031297;28;20658;-71
2022/01/30 03:32:35;;;;;;;0.50;0.50;;;8.30;99.90;;;8.66;73.09;101651.31;5032218;28;20620;-71
2022/01/30 03:35:02;;;;;;;2.60;1.10;;;8.40;99.90;;;8.48;74.63;101664.25;5032244;28;20743;-71
2022/01/30 03:37:29;;;;;;;0.63;0.53;;;8.30;99.90;;;8.41;74.51;101665.44;5032039;28;21030;-71
2022/01/30 03:39:56;;;;;;;0.70;0.70;;;8.20;99.90;;;8.28;75.56;101672.16;5032353;28;20621;-71
2022/01/30 03:42:23;;;;;;;1.00;0.80;;;8.10;99.90;;;8.26;76.18;101667.94;5032045;28;20609;-72
2022/01/30 03:44:50;;;;;;;2.50;1.20;;;8.00;99.90;;;8.24;75.94;101675.75;5031323;28;20993;-71
2022/01/30 03:47:17;;;;;;;2.90;1.30;;;8.00;99.90;;;8.27;76.34;101678.25;5031995;28;21003;-71
2022/01/30 03:49:44;;;;;;;1.23;1.10;;;8.10;99.90;;;8.22;76.43;101689.78;5032192;28;21396;-70
2022/01/30 03:52:10;;;;;;;0.63;0.63;;;7.90;99.90;;;7.97;77.54;101686.56;5032196;28;20616;-71
2022/01/30 03:54:38;;;;;;;4.00;0.90;;;7.70;99.90;;;8.12;76.62;101685.88;5030803;28;20604;-70
2022/01/30 03:57:05;;;;;;;5.33;1.40;;;7.90;99.90;;;8.21;75.82;101677.66;5031594;28;21226;-71
2022/01/30 03:59:32;;;;;;;8.73;1.63;;;7.90;99.90;;;8.12;76.40;101684.13;5031727;28;21019;-70
2022/01/30 04:01:59;;;;;;;3.53;1.20;;;7.80;99.90;;;8.00;76.86;101696.81;5030898;28;21195;-71
2022/01/30 04:04:26;;;;;;;3.23;0.67;;;7.70;99.90;;;7.94;76.93;101692.75;5031802;28;21235;-71
2022/01/30 04:06:57;;;;;;;4.37;0.50;;;7.70;99.90;;;7.91;77.10;101692.03;5030416;28;20646;-71
2022/01/30 04:09:26;;;;;;;4.70;1.27;;;7.60;99.90;;;7.65;78.58;101695.75;5031991;28;20615;-70
2022/01/30 04:11:54;;;;;;;0.30;0.30;;;7.50;99.90;;;7.77;77.97;101696.06;5031755;28;21196;-71
2022/01/30 04:14:21;;;;;;;1.53;0.97;;;7.50;99.90;;;7.86;75.98;101694.81;5031551;28;21266;-71
2022/01/30 04:16:48;;;;;;;2.10;0.90;;;7.60;99.90;;;7.83;75.64;101700.19;5031317;28;21022;-71
2022/01/30 04:19:15;;;;;;;0.50;0.50;;;7.60;99.90;;;7.94;74.23;101702.31;5031757;28;20656;-71
2022/01/30 04:21:42;;;;;;;0.40;0.40;;;7.70;99.90;;;8.04;73.24;101701.81;5031655;28;20608;-70
2022/01/30 04:24:10;;;;;;;1.23;0.70;;;7.80;99.90;;;8.11;72.61;101702.41;5054458;28;20627;-71
2022/01/30 04:26:36;;;;;;;1.00;0.60;;;7.80;99.90;;;8.19;71.63;101713.28;5066494;28;20639;-71
2022/01/30 04:29:04;;;;;;;2.40;1.30;;;7.90;99.90;;;7.98;71.39;101702.09;5049455;28;20726;-71
2022/01/30 04:31:31;;;;;;;0.60;0.60;;;7.90;99.90;;;8.09;70.80;101706.81;5050183;28;21025;-71
2022/01/30 04:33:59;;;;;;;4.47;0.77;;;7.80;99.90;;;8.09;70.58;101714.63;5049581;28;20738;-71
2022/01/30 04:36:35;;;;;;;2.50;0.70;;;7.90;99.90;;;8.14;70.26;101710.88;5057324;28;20663;-71
2022/01/30 04:39:27;;;;;;;0.80;0.80;;;7.90;99.90;;;8.01;70.70;101709.75;5029988;28;20656;-72
2022/01/30 04:42:24;;;;;;;1.73;0.57;;;7.80;99.90;;;7.98;69.65;101714.25;5031461;28;20720;-71
2022/01/30 04:53:16;;;;;;;1.43;0.63;;;7.70;99.90;;;7.84;69.76;101717.44;5048479;28;20726;-70
2022/01/30 04:58:45;;;;;;;0.30;0.30;;;7.50;99.90;;;7.70;70.31;101741.44;5053591;28;21293;-71
2022/01/30 05:01:21;;;;;;;2.03;0.30;;;7.40;99.90;;;7.58;70.92;101735.91;5054598;28;20654;-70
2022/01/30 05:06:18;;;;;;;5.50;0.80;;;7.40;99.90;;;7.56;71.40;101743.75;5053894;28;20631;-70
2022/01/30 05:08:45;;;;;;;0.30;0.30;;;7.30;99.90;;;7.50;72.18;101748.34;5055037;28;21261;-71
2022/01/30 05:11:12;;;;;;;2.20;0.30;;;7.20;99.90;;;7.57;71.18;101750.66;5054008;28;20714;-70
2022/01/30 05:13:45;;;;;;;1.60;0.70;;;7.30;99.90;;;7.66;71.27;101754.63;5054992;28;20634;-70
2022/01/30 05:16:12;;;;;;;0.40;0.40;;;7.40;99.90;;;7.61;71.14;101757.41;5053460;28;20637;-70
2022/01/30 05:18:40;;;;;;;0.93;0.83;;;7.40;99.90;;;7.54;72.28;101757.69;5052329;28;20750;-70
2022/01/30 05:21:07;;;;;;;2.83;0.80;;;7.30;99.90;;;7.44;72.19;101752.06;5053116;28;20635;-70
2022/01/30 05:23:34;;;;;;;6.70;1.30;;;7.20;99.90;;;7.36;72.05;101753.28;5053093;28;21369;-69
2022/01/30 05:26:07;;;;;;;4.87;1.83;;;7.10;99.90;;;7.28;73.18;101751.00;5052633;28;21194;-72
2022/01/30 05:28:34;;;;;;;4.00;1.77;;;7.00;99.90;;;7.25;72.96;101756.31;5052279;28;20622;-72
2022/01/30 05:31:01;;;;;;;3.63;2.23;;;7.00;99.90;;;7.21;72.41;101756.50;5052972;28;20631;-70
2022/01/30 05:33:29;;;;;;;2.33;1.40;;;7.00;99.90;;;7.16;73.25;101767.06;5052730;28;20623;-71
2022/01/30 05:35:56;;;;;;;1.47;1.30;;;7.00;99.90;;;7.26;73.00;101772.75;5052700;28;20626;-72
2022/01/30 05:38:23;;;;;;;3.33;1.20;;;7.00;99.90;;;7.15;71.98;101775.75;5053379;28;20697;-72
2022/01/30 05:40:51;;;;;;;3.07;1.17;;;6.90;99.90;;;7.20;72.19;101779.00;5053065;28;21229;-72
2022/01/30 05:43:18;;;;;;;0.90;0.90;;;6.90;99.90;;;7.13;71.51;101774.13;5052814;28;20638;-71
2022/01/30 05:45:54;;;;;;;1.03;0.97;;;6.90;99.90;;;7.12;72.48;101778.47;5053416;28;21189;-71
2022/01/30 05:48:21;;;;;;;3.07;1.43;;;6.90;99.90;;;7.14;72.25;101784.44;5053134;28;20635;-72
2022/01/30 05:50:49;;;;;;;2.50;0.80;;;6.90;99.90;;;7.15;71.02;101799.13;5053442;28;20622;-72
2022/01/30 05:53:15;;;;;;;1.90;0.77;;;6.90;99.90;;;7.14;69.64;101805.22;5051523;28;21007;-71
2022/01/30 05:55:42;;;;;;;2.33;0.97;;;6.90;99.90;;;7.13;69.20;101816.50;5051951;28;20625;-71
2022/01/30 05:58:10;;;;;;;0.70;0.67;;;6.90;99.90;;;7.12;69.14;101820.00;5051666;28;21240;-71
2022/01/30 06:00:37;;;;;;;2.83;1.13;;;6.90;99.90;;;7.18;68.09;101818.91;5052760;28;20998;-71
2022/01/30 06:03:03;;;;;;;3.53;1.60;;;6.90;99.90;;;7.17;67.98;101823.28;5052389;28;20641;-72
2022/01/30 06:05:31;;;;;;;1.80;0.70;;;6.90;99.90;;;7.17;68.18;101823.28;5052502;28;20680;-71
2022/01/30 06:08:09;;;;;;;0.77;0.60;;;6.90;99.90;;;7.20;68.39;101828.31;5050059;28;21267;-72
2022/01/30 06:10:35;;;;;;;3.93;1.20;;;6.90;99.90;;;7.24;68.57;101834.25;5052350;28;20615;-71
2022/01/30 06:13:03;;;;;;;0.30;0.30;;;7.00;99.90;;;7.26;68.59;101835.88;5034223;28;20635;-71
2022/01/30 06:15:30;;;;;;;0.50;0.43;;;7.00;99.90;;;7.21;68.41;101848.19;5053835;28;20607;-71
2022/01/30 06:17:56;;;;;;;0.73;0.60;;;6.90;99.90;;;7.22;68.62;101843.88;5053181;28;20653;-72
2022/01/30 06:20:23;;;;;;;0.53;0.53;;;6.90;99.90;;;7.10;68.54;101841.72;5053775;28;20619;-71
2022/01/30 06:22:50;;;;;;;1.13;0.70;;;6.90;99.90;;;6.89;69.77;101846.84;5051580;28;20654;-71
2022/01/30 06:25:17;;;;;;;1.70;0.60;;;6.80;99.90;;;6.95;68.61;101844.00;5051669;28;20638;-72
2022/01/30 06:27:44;;;;;;;0.40;0.40;;;6.70;99.90;;;6.93;69.01;101850.16;5051222;28;20661;-72
2022/01/30 06:30:12;;;;;;;4.40;1.43;;;6.70;99.90;;;6.84;70.04;101853.94;5051278;28;20606;-71
2022/01/30 06:32:38;;;;;;;0.80;0.80;;;6.60;99.90;;;6.83;69.19;101852.25;5052571;28;20611;-71
2022/01/30 06:35:06;;;;;;;1.13;0.60;;;6.60;99.90;;;6.73;69.37;101848.28;5051748;28;20638;-71
2022/01/30 06:37:33;;;;;;;0.63;0.60;;;6.50;99.90;;;6.82;68.69;101854.88;5052293;28;20663;-72
2022/01/30 06:40:01;;;;;;;1.07;0.50;;;6.60;99.90;;;6.80;69.67;101847.16;5049939;28;20656;-72
2022/01/30 06:42:29;;;;;;;0.50;0.50;;;6.60;99.90;;;6.79;69.49;101857.63;5052968;28;20611;-70
2022/01/30 06:44:57;;;;;;;1.00;0.70;;;6.50;99.90;;;6.75;69.46;101861.22;5050301;28;20632;-71
2022/01/30 06:47:24;;;;;;;2.20;1.07;;;6.50;99.90;;;6.66;69.58;101861.56;5052381;28;21250;-71
2022/01/30 06:49:51;;;;;;;1.43;0.97;;;6.40;99.90;;;6.61;69.55;101866.03;5048463;28;20623;-71
2022/01/30 06:52:18;;;;;;;1.55;0.70;;;6.40;99.90;;;6.49;70.01;101867.34;5051809;28;20699;-72
2022/01/30 06:54:45;;;;;;;0.75;0.65;;;6.30;99.90;;;6.29;70.78;101877.56;5053025;28;20252;-71
2022/01/30 06:57:12;;;;;;;0.68;0.68;;;6.10;99.90;;;6.35;70.04;101879.06;5053979;28;20236;-71
2022/01/30 06:59:39;;;;;;;7.33;1.20;;;6.20;99.90;;;6.41;69.63;101881.47;5052625;28;20225;-72
2022/01/30 07:02:09;;;;;;;0.82;0.63;;;6.20;99.90;;;6.48;69.43;101888.13;5061036;28;20615;-71
2022/01/30 07:04:36;;;;;;;1.30;0.77;;;6.30;99.90;;;6.36;69.70;101898.94;5052660;28;20212;-70
2022/01/30 07:07:04;;;;;;;3.45;0.95;;;6.20;99.90;;;6.53;68.27;101894.00;5052484;28;20643;-70
2022/01/30 07:09:32;;;;;;;1.70;0.93;;;6.30;99.90;;;6.61;68.65;101898.03;5051422;28;20209;-70
2022/01/30 07:11:59;;;;;;;0.70;0.70;;;6.40;99.90;;;6.63;68.45;101891.03;5049994;28;20620;-71
2022/01/30 07:14:27;;;;;;;10.97;1.60;;;6.40;99.90;;;6.63;68.83;101892.78;5050573;28;20201;-71
2022/01/30 07:16:53;;;;;;;5.60;1.20;;;6.40;99.90;;;6.70;68.29;101883.88;5050141;28;21253;-71
2022/01/30 07:19:21;;;;;;;1.10;0.60;;;6.50;99.90;;;6.77;67.71;101891.38;5049839;28;20762;-70
2022/01/30 07:21:48;;;;;;;1.70;1.08;;;6.50;99.90;;;6.70;67.26;101894.25;5048486;28;20335;-71
2022/01/30 07:24:15;;;;;;;8.73;1.30;;;6.50;99.90;;;6.82;66.93;101894.66;5050110;28;20197;-70
2022/01/30 07:26:42;;;;;;;2.93;1.07;;;6.60;99.90;;;6.62;68.24;101904.06;5062347;28;20671;-70
2022/01/30 07:29:09;;;;;;;1.03;0.90;;;6.50;99.90;;;6.76;67.83;101896.63;5062069;28;21207;-70
2022/01/30 07:31:36;;;;;;;2.20;0.70;;;6.60;99.90;;;6.72;67.65;101902.81;5060744;28;21240;-70
2022/01/30 07:34:03;;;;;;;3.43;0.67;;;6.50;99.90;;;6.82;67.35;101904.19;5070595;28;20626;-71
2022/01/30 07:36:35;;;;;;;3.13;0.90;;;6.60;99.90;;;6.90;66.88;101904.75;5052742;28;21040;-70
2022/01/30 07:39:06;;;;;;;0.70;0.70;;;6.70;99.90;;;6.90;66.39;101908.19;5051169;28;21367;-71
2022/01/30 07:41:33;;;;;;;3.40;1.20;;;6.70;99.90;;;6.94;67.40;101914.94;5050075;28;20627;-70
2022/01/30 07:44:02;;;;;;;2.67;1.13;;;6.80;99.90;;;6.93;67.07;101909.81;5051776;28;20303;-70
2022/01/30 07:46:30;;;;;;;1.20;1.10;;;6.80;99.90;;;7.07;67.07;101920.53;5050720;28;20763;-69
2022/01/30 07:48:57;;;;;;;7.77;1.40;;;6.90;99.90;;;7.21;65.32;101928.69;5051246;28;20631;-70
2022/01/30 07:51:24;;;;;;;5.60;1.43;;;7.10;99.90;;;7.23;66.04;101928.59;5050553;28;20632;-70
2022/01/30 07:53:51;;;;;;;4.60;1.10;;;7.10;99.90;;;7.43;65.94;101936.50;5050211;28;20619;-70
2022/01/30 07:56:18;;;;;;;0.57;0.57;;;7.30;99.90;;;7.62;64.57;101946.09;5050102;28;20635;-70
2022/01/30 07:58:45;;;;;;;2.03;0.83;;;7.60;99.90;;;7.75;63.19;101939.53;5051557;28;21107;-70
2022/01/30 08:01:12;;;;;;;0.90;0.80;;;7.70;99.90;;;7.70;62.70;101944.06;5050627;28;21004;-71
2022/01/30 08:03:39;;;;;;;1.63;0.70;;;7.80;99.90;;;7.65;63.10;101940.78;5050300;28;20623;-70
2022/01/30 08:06:07;;;;;;;4.60;0.90;;;7.60;99.90;;;7.62;63.29;101940.91;5049063;28;20727;-68
2022/01/30 08:08:33;;;;;;;3.13;0.90;;;7.60;99.90;;;7.62;63.08;101940.09;5048830;28;20612;-71
2022/01/30 08:11:00;;;;;;;4.83;0.80;;;7.50;99.90;;;7.57;63.11;101963.63;5050220;28;20622;-70
2022/01/30 08:13:27;;;;;;;0.30;0.30;;;7.60;99.90;;;7.67;63.10;101951.97;5050366;28;20607;-70
2022/01/30 08:15:55;;;;;;;0.60;0.60;;;7.60;99.90;;;7.66;62.38;101950.28;5050178;28;20632;-69
2022/01/30 08:18:22;;;;;;;4.23;0.67;;;7.60;99.90;;;7.75;62.60;101959.47;5050166;28;20604;-71
2022/01/30 08:20:49;;;;;;;0.57;0.57;;;7.70;99.90;;;7.61;63.35;101953.97;5047074;28;20614;-71
2022/01/30 08:23:18;;;;;;;3.07;0.80;;;7.60;99.90;;;7.75;61.73;101952.50;5043201;28;20615;-71
2022/01/30 08:25:45;;;;;;;3.57;0.50;;;7.70;99.90;;;7.80;62.83;101939.34;5046240;28;20648;-71
2022/01/30 08:28:12;;;;;;;7.20;2.40;;;7.70;99.90;;;7.98;60.91;101953.34;5030558;28;20645;-71
2022/01/30 08:30:40;;;;;;;3.13;0.60;;;7.90;99.90;;;8.04;61.03;101947.91;5029001;28;20748;-70
2022/01/30 08:33:07;;;;;;;0.20;0.20;;;8.00;99.90;;;8.17;60.13;101944.75;5030913;28;20626;-69
2022/01/30 08:35:34;;;;;;;0.50;0.50;;;8.20;99.90;;;8.32;60.16;101948.50;5042393;28;20626;-70
2022/01/30 08:38:01;;;;;;;2.63;1.00;;;8.30;99.90;;;8.49;59.82;101951.25;5031196;28;20655;-71
2022/01/30 08:40:28;;;;;;;0.40;0.40;;;8.50;99.90;;;8.51;59.20;101955.47;5046763;28;20668;-70
2022/01/30 08:42:55;;;;;;;0.77;0.63;;;8.60;99.90;;;8.74;59.03;101954.47;5043065;28;21063;-70
2022/01/30 08:45:22;;;;;;;1.67;0.40;;;8.80;99.90;;;8.64;58.19;101945.38;5050646;28;20628;-70
2022/01/30 08:47:52;;;;;;;1.67;0.90;;;8.90;99.90;;;8.87;58.17;101947.81;5045668;28;20651;-69
2022/01/30 08:50:21;;;;;;;9.53;0.70;;;8.90;99.90;;;8.88;57.95;101939.09;5048596;28;20628;-70
2022/01/30 08:52:49;;;;;;;1.77;1.00;;;9.00;99.90;;;8.88;57.76;101935.66;5044636;28;20616;-69
2022/01/30 08:55:18;;;;;;;1.80;1.27;;;9.00;99.90;;;9.05;57.77;101941.78;5049376;28;21205;-70
2022/01/30 08:57:45;;;;;;;0.90;0.70;;;9.10;99.90;;;8.97;57.41;101935.22;5049667;28;20659;-70
2022/01/30 09:00:16;;;;;;;0.67;0.67;;;9.10;99.90;;;9.11;57.28;101940.69;5046730;28;20709;-70
2022/01/30 09:02:43;;;;;;;0.40;0.40;;;9.10;99.90;;;9.08;57.55;101930.41;5049214;28;20603;-71
2022/01/30 09:05:12;;;;;;;1.27;0.97;;;9.10;99.90;;;8.95;57.55;101935.31;5043245;28;20663;-70
2022/01/30 09:07:40;;;;;;;0.63;0.50;;;9.10;99.90;;;8.73;58.62;101929.34;5031331;28;20843;-70
2022/01/30 09:10:10;;;;;;;1.80;1.00;;;9.10;99.90;;;9.03;57.87;101922.78;5056809;28;20632;-70
2022/01/30 09:12:39;;;;;;;0.80;0.80;;;9.10;99.90;;;8.76;58.14;101920.56;5049601;28;20629;-70
2022/01/30 09:15:08;;;;;;;1.17;0.60;;;8.90;99.90;;;9.09;57.69;101916.47;5042378;28;20628;-70
2022/01/30 09:17:35;;;;;;;0.30;0.30;;;9.00;99.90;;;11.27;51.45;101921.97;5050861;28;20639;-70
2022/01/30 09:20:04;;;;;;;0.67;0.67;;;12.00;97.30;;;13.15;46.01;101923.97;5046668;28;20751;-70
2022/01/30 09:22:31;;;;;;;2.10;0.60;;;14.90;83.30;;;11.90;47.05;101914.97;5041914;28;20635;-70
2022/01/30 09:24:59;;;;;;;3.70;0.70;;;14.70;74.60;;;13.36;44.94;101916.53;5048313;28;21206;-70
2022/01/30 09:27:26;;;;;;;0.30;0.30;;;14.70;75.30;;;12.29;46.08;101904.78;5048973;28;20651;-71
2022/01/30 09:29:54;;;;;;;7.03;1.00;;;14.30;74.00;;;12.19;47.05;101909.75;5042345;28;20629;-70
2022/01/30 09:32:21;;;;;;;1.33;0.60;;;13.30;77.90;;;11.71;48.40;101911.72;5037138;28;20640;-71
2022/01/30 09:34:48;;;;;;;0.87;0.50;;;12.40;82.00;;;11.17;49.28;101913.81;5048521;28;20654;-69
2022/01/30 09:37:17;;;;;;;0.50;0.40;;;11.70;87.00;;;10.31;52.33;101913.16;5047934;28;20655;-70
2022/01/30 09:39:45;;;;;;;3.80;0.50;;;11.30;90.60;;;10.78;51.70;101914.16;5045898;28;20671;-69
2022/01/30 09:42:12;;;;;;;0.63;0.50;;;11.10;92.30;;;10.51;52.11;101920.81;5050741;28;20931;-70
2022/01/30 09:44:41;;;;;;;2.43;1.17;;;10.80;93.10;;;10.01;53.67;101919.84;5049060;28;20632;-69
2022/01/30 09:47:17;;;;;;;2.27;1.03;;;10.50;94.10;;;10.30;52.64;101921.06;5053498;28;20730;-70
2022/01/30 09:49:50;;;;;;;0.83;0.70;;;10.70;93.70;;;9.95;52.53;101918.41;5040285;28;21224;-69
2022/01/30 09:52:19;;;;;;;1.03;0.50;;;10.20;94.00;;;10.06;52.40;101931.75;5051751;28;20623;-71
2022/01/30 09:54:47;;;;;;;0.30;0.30;;;10.20;94.60;;;10.41;51.89;101917.00;5053529;28;20723;-69
2022/01/30 09:57:15;;;;;;;2.30;0.70;;;10.60;94.70;;;11.48;48.32;101929.47;5043495;28;20662;-71
2022/01/30 09:59:42;;;;;;;0.77;0.63;;;12.30;91.30;;;13.23;45.01;101941.81;5050408;28;20667;-70
2022/01/30 10:02:10;;;;;;;4.10;0.60;;;14.40;80.80;;;13.33;45.12;101939.50;5052505;28;20615;-68
2022/01/30 10:04:38;;;;;;;0.30;0.30;;;14.40;77.60;;;14.51;41.49;101945.69;5046768;28;20720;-69
2022/01/30 10:07:17;;;;;;;1.57;0.60;;;16.60;68.00;;;16.25;37.71;101936.59;5032804;28;20631;-69
2022/01/30 10:09:46;;;;;;;4.10;0.90;;;18.50;59.30;;;17.18;36.16;101943.47;5044350;28;20638;-70
2022/01/30 10:12:16;;;;;;;1.37;0.70;;;19.00;56.20;;;16.75;36.69;101944.19;5042071;28;20631;-70
2022/01/30 10:14:53;;;;;;;5.23;0.90;;;18.70;55.10;;;17.63;35.02;101953.03;5037169;28;20701;-69
2022/01/30 10:17:41;;;;;;;1.33;0.80;;;19.40;53.50;;;17.41;34.70;101934.56;5036915;28;20690;-69
2022/01/30 10:20:35;;;;;;;0.93;0.70;;;19.40;52.10;;;18.71;32.59;101936.94;5052022;28;20640;-70
2022/01/30 10:23:08;;;;;;;0.97;0.90;;;20.50;49.70;;;20.12;30.83;101948.03;5053245;28;20651;-70
2022/01/30 10:25:55;;;;;;;3.23;1.03;;;22.00;47.80;;;21.31;28.59;101938.56;5061956;28;20652;-70
2022/01/30 10:28:32;;;;;;;0.70;0.70;;;23.80;44.10;;;22.15;27.05;101947.88;5068039;28;20638;-70
2022/01/30 10:31:04;;;;;;;2.13;1.37;;;25.40;41.10;;;22.28;26.99;101951.00;5072833;28;20610;-70
2022/01/30 10:33:47;;;;;;;2.73;1.00;;;25.00;40.40;;;23.72;25.69;101955.41;5067827;28;20639;-66
2022/01/30 10:36:42;;;;;;;1.03;0.80;;;25.90;40.50;;;24.22;24.88;101946.50;5049556;28;20637;-71
2022/01/30 10:39:13;;;;;;;1.53;0.97;;;26.80;38.60;;;23.17;25.58;101931.09;5058599;28;21205;-71
2022/01/30 10:41:45;;;;;;;1.13;0.60;;;25.90;39.60;;;22.16;26.35;101946.06;5047228;28;20628;-69
2022/01/30 10:44:12;;;;;;;1.60;1.17;;;25.50;38.70;;;22.38;26.21;101938.44;5046267;28;20682;-73
2022/01/30 10:46:53;;;;;;;1.37;1.27;;;25.70;38.30;;;21.57;27.15;101934.19;5050377;28;20660;-72
2022/01/30 10:49:22;;;;;;;1.47;0.97;;;24.90;38.80;;;19.58;29.56;101928.34;5051223;28;21194;-73
2022/01/30 10:51:53;;;;;;;5.40;1.20;;;21.90;41.60;;;16.92;33.59;101927.91;5051143;28;20739;-71
2022/01/30 10:54:20;;;;;;;1.23;1.00;;;18.80;45.60;;;16.15;35.74;101939.09;5044542;28;20632;-70
2022/01/30 10:56:47;;;;;;;3.57;1.00;;;17.20;48.60;;;15.18;37.06;101934.81;5046746;28;20663;-70
2022/01/30 10:59:22;;;;;;;1.47;0.90;;;16.00;50.90;;;13.80;39.58;101940.75;5049698;28;20636;-70
2022/01/30 11:01:51;;;;;;;3.50;0.90;;;14.60;53.50;;;12.98;41.37;101937.25;5050436;28;20616;-71
2022/01/30 11:04:27;;;;;;;1.20;0.70;;;13.70;55.20;;;12.75;42.44;101940.41;5052902;28;20634;-69
2022/01/30 11:06:58;;;;;;;0.37;0.37;;;12.90;57.40;;;12.43;43.54;101937.09;5050606;28;21198;-70
2022/01/30 11:09:34;;;;;;;0.97;0.90;;;12.60;59.30;;;11.13;44.63;101941.03;5052448;28;20635;-70
2022/01/30 11:12:17;;;;;;;3.90;1.13;;;11.80;60.60;;;11.04;45.92;101936.28;5051428;28;20616;-69
2022/01/30 11:17:17;;;;;;;3.70;0.70;;;11.10;66.30;;;11.05;47.07;101929.31;5050821;28;21110;-69
2022/01/30 11:19:48;;;;;;;2.30;0.60;;;11.20;68.60;;;11.22;46.78;101924.00;5049670;28;20666;-69